Time;durP1;ratioP1;P1;durP2;ratioP2;P2;SDS_P1;SDS_P2;PMS_P1;PMS_P2;Temp;Humidity;BMP_temperature;BMP_pressure;BME280_temperature;BME280_humidity;BME280_pressure;Samples;Min_cycle;Max_cycle;Signal;HPM_P1;HPM_P2
2022/01/03 14:53:27;;;;;;;4.37;1.07;;;;;;;-142.75;100.00;76995.50;5066726;28;20348;-69
2022/01/03 14:55:53;;;;;;;20.23;1.85;;;;;;;-142.75;100.00;76999.44;5066653;28;20021;-69
2022/01/03 14:58:21;;;;;;;6.72;1.48;;;;;;;-142.75;100.00;76995.50;5066334;28;20021;-69
2022/01/03 15:00:47;;;;;;;10.27;1.35;;;;;;;-142.75;100.00;77005.34;5065766;28;20021;-68
2022/01/03 15:03:13;;;;;;;8.18;1.00;;;;;;;-142.75;100.00;76999.44;5066392;28;20368;-68
2022/01/03 15:05:39;;;;;;;9.60;1.52;;;;;;;-142.75;100.00;76995.50;5066505;28;20031;-68
2022/01/03 15:08:04;;;;;;;;;;;;;;;-142.75;100.00;76995.50;5066825;28;20032;-68
2022/01/03 15:10:32;;;;;;;8.68;1.25;;;;;;;-142.75;100.00;76989.59;5064204;28;20329;-68
2022/01/03 15:12:57;;;;;;;7.70;1.17;;;;;;;-142.75;100.00;76991.56;5064345;28;20543;-67
2022/01/03 15:15:24;;;;;;;9.90;1.73;;;;;;;-142.75;100.00;76993.53;5066243;28;20107;-69
2022/01/03 15:17:49;;;;;;;4.30;1.00;;;;;;;-142.75;100.00;76983.69;5066392;28;20017;-69
2022/01/03 15:20:15;;;;;;;8.88;1.45;;;;;;;-142.75;100.00;76987.63;5063984;28;20043;-69
2022/01/03 15:22:41;;;;;;;;;;;;;;;-142.75;100.00;76995.50;5065746;28;20065;-69
2022/01/03 15:25:07;;;;;;;5.75;1.27;;;;;;;-142.75;100.00;76995.50;5064992;28;20386;-69
2022/01/03 15:27:33;;;;;;;10.88;1.55;;;;;;;-142.75;100.00;77003.38;5065532;28;20547;-68
2022/01/03 15:29:58;;;;;;;6.47;1.15;;;;;;;-142.75;100.00;77003.38;5064136;28;20948;-69
2022/01/03 15:32:23;;;;;;;6.53;1.63;;;;;;;-142.75;100.00;77007.31;5070596;28;20043;-67
2022/01/03 15:34:48;;;;;;;10.15;1.33;;;;;;;-142.75;100.00;77011.25;5066883;28;20321;-69
2022/01/03 15:37:14;;;;;;;6.50;1.33;;;;;;;-142.75;100.00;77003.38;5065794;28;20229;-69
2022/01/03 15:39:41;;;;;;;11.32;1.65;;;;;;;-142.75;100.00;77009.28;5064958;28;20040;-69
2022/01/03 15:42:06;;;;;;;;;;;;;;;-142.75;100.00;77005.34;5064477;28;20470;-68
2022/01/03 15:44:32;;;;;;;9.57;1.42;;;;;;;-142.75;100.00;77015.19;5065616;28;19924;-69
2022/01/03 15:46:57;;;;;;;9.38;1.27;;;;;;;-142.75;100.00;77015.19;5065405;28;20052;-69
2022/01/03 15:49:22;;;;;;;11.35;1.40;;;;;;;-142.75;100.00;77005.34;5065505;28;20478;-69
2022/01/03 15:51:48;;;;;;;8.77;1.20;;;;;;;-142.75;100.00;77015.19;5064698;28;20554;-69
2022/01/03 15:54:14;;;;;;;7.38;1.23;;;;;;;-142.75;100.00;77021.09;5065270;28;20029;-69
2022/01/03 15:56:40;;;;;;;14.15;1.42;;;;;;;-142.75;100.00;77013.22;5065133;28;20028;-69
2022/01/03 15:59:07;;;;;;;9.88;1.58;;;;;;;-142.75;100.00;77017.16;5065246;28;20052;-68
2022/01/03 16:01:32;;;;;;;10.60;1.58;;;;;;;-142.75;100.00;77019.13;5064165;28;20107;-69
2022/01/03 16:03:58;;;;;;;11.77;1.40;;;;;;;-142.75;100.00;77023.06;5056566;28;20116;-69
2022/01/03 16:06:24;;;;;;;8.40;1.25;;;;;;;-142.75;100.00;77019.13;5051889;28;20271;-69
2022/01/03 16:08:49;;;;;;;8.73;1.88;;;;;;;-142.75;100.00;77019.13;5052137;28;20093;-69
2022/01/03 16:11:15;;;;;;;10.20;1.70;;;;;;;-142.75;100.00;77019.13;5050975;28;20086;-69
2022/01/03 16:13:40;;;;;;;12.88;1.77;;;;;;;-142.75;100.00;77015.19;5051737;28;20577;-69
2022/01/03 16:16:05;;;;;;;18.33;1.98;;;;;;;-142.75;100.00;77015.19;5051756;28;20024;-69
2022/01/03 16:18:35;;;;;;;14.00;1.40;;;;;;;-142.75;100.00;77023.06;5051559;28;20104;-69
2022/01/03 16:21:00;;;;;;;8.25;1.27;;;;;;;-142.75;100.00;77015.19;5049433;28;20029;-70
2022/01/03 16:23:26;;;;;;;11.50;1.33;;;;;;;-142.75;100.00;77015.19;5051589;28;20399;-69
2022/01/03 16:25:51;;;;;;;14.43;1.20;;;;;;;-142.75;100.00;77015.19;5051892;28;20029;-69
2022/01/03 16:28:16;;;;;;;14.60;1.88;;;;;;;-142.75;100.00;77021.09;5050518;28;20274;-69
2022/01/03 16:30:45;;;;;;;6.70;0.80;;;;;;;-142.75;100.00;77009.28;5062920;28;20029;-69
2022/01/03 16:33:10;;;;;;;8.75;1.85;;;;;;;-142.75;100.00;77009.28;5071425;28;20100;-69
2022/01/03 16:35:37;;;;;;;10.07;1.95;;;;;;;-142.75;100.00;77003.38;5071489;28;20119;-68
2022/01/03 16:38:02;;;;;;;10.93;1.63;;;;;;;-142.75;100.00;77007.31;5071924;28;20511;-68
2022/01/03 16:40:27;;;;;;;9.68;1.17;;;;;;;-142.75;100.00;77009.28;5072717;28;20104;-68
2022/01/03 16:42:53;;;;;;;8.85;1.50;;;;;;;-142.75;100.00;77007.31;5059069;28;20021;-66
2022/01/03 16:45:19;;;;;;;15.23;1.85;;;;;;;-142.75;100.00;77007.31;5072522;28;20036;-68
2022/01/03 16:47:44;;;;;;;11.38;1.98;;;;;;;-142.75;100.00;77011.25;5055854;28;20028;-68
2022/01/03 16:50:10;;;;;;;16.42;1.85;;;;;;;-142.75;100.00;76999.44;5056697;28;20069;-68
2022/01/03 16:52:35;;;;;;;11.48;1.27;;;;;;;-142.75;100.00;76995.50;5070804;28;20039;-69
2022/01/03 16:55:00;;;;;;;9.27;1.20;;;;;;;-142.75;100.00;76991.56;5051043;28;20491;-69
2022/01/03 16:57:28;;;;;;;10.20;1.58;;;;;;;-142.75;100.00;76989.59;5051023;28;20032;-69
2022/01/03 16:59:53;;;;;;;14.38;2.35;;;;;;;-142.75;100.00;76981.72;5063668;28;20117;-69
2022/01/03 17:02:20;;;;;;;12.82;1.50;;;;;;;-142.75;100.00;76981.72;5069319;28;20056;-68
2022/01/03 17:04:46;;;;;;;16.08;2.20;;;;;;;-142.75;100.00;76973.84;5070982;28;20369;-69
2022/01/03 17:07:11;;;;;;;17.50;2.10;;;;;;;-142.75;100.00;76973.84;5070776;28;20033;-69
2022/01/03 17:09:38;;;;;;;12.68;1.60;;;;;;;-142.75;100.00;76975.81;5070669;28;20098;-70
2022/01/03 17:12:04;;;;;;;15.75;2.08;;;;;;;-142.75;100.00;76964.00;5070130;28;20103;-69
2022/01/03 17:14:29;;;;;;;21.13;2.80;;;;;;;-142.75;100.00;76952.19;5070152;28;20138;-69
2022/01/03 17:16:55;;;;;;;8.40;1.50;;;;;;;-142.75;100.00;76960.06;5070217;28;20049;-69
2022/01/03 17:19:21;;;;;;;14.68;2.00;;;;;;;-142.75;100.00;76960.06;5070459;28;20040;-68
2022/01/03 17:21:47;;;;;;;19.95;2.03;;;;;;;-142.75;100.00;76954.16;5069956;28;20020;-68
2022/01/03 17:24:12;;;;;;;9.98;1.92;;;;;;;-142.75;100.00;76954.16;5070460;28;20036;-69
2022/01/03 17:26:37;;;;;;;20.05;2.90;;;;;;;-142.75;100.00;76946.28;5070449;28;20016;-69
2022/01/03 17:29:03;;;;;;;13.10;2.03;;;;;;;-142.75;100.00;76942.34;5070267;28;20543;-69
2022/01/03 17:31:28;;;;;;;13.73;3.00;;;;;;;-142.75;100.00;76936.44;5069265;28;20027;-68
2022/01/03 17:33:55;;;;;;;11.75;1.95;;;;;;;-142.75;100.00;76934.47;5070075;28;20024;-68
2022/01/03 17:36:20;;;;;;;11.77;2.03;;;;;;;-142.75;100.00;76932.50;5070154;28;20498;-69
2022/01/03 17:38:46;;;;;;;8.18;1.60;;;;;;;-142.75;100.00;76940.38;5060680;28;20024;-69
2022/01/03 17:41:11;;;;;;;12.60;2.13;;;;;;;-142.75;100.00;76946.28;5049177;28;20036;-69
2022/01/03 17:43:37;;;;;;;9.05;1.83;;;;;;;-142.75;100.00;76938.41;5050174;28;20131;-69
2022/01/03 17:46:03;;;;;;;10.77;2.17;;;;;;;-142.75;100.00;76928.56;5049941;28;20141;-69
2022/01/03 17:48:33;;;;;;;16.90;2.25;;;;;;;-142.75;100.00;76936.44;5049996;28;20029;-69
2022/01/03 17:50:59;;;;;;;15.73;2.35;;;;;;;-142.75;100.00;76934.47;5054355;28;20025;-68
2022/01/03 17:53:24;;;;;;;7.18;1.60;;;;;;;-142.75;100.00;76938.41;5069805;28;20025;-69
2022/01/03 17:55:51;;;;;;;9.27;2.05;;;;;;;-142.75;100.00;76942.34;5070169;28;20056;-69
2022/01/03 17:58:17;;;;;;;12.32;1.92;;;;;;;-142.75;100.00;76940.38;5061681;28;20481;-68
2022/01/03 18:00:43;;;;;;;8.48;1.83;;;;;;;-142.75;100.00;76938.41;5047813;28;20052;-69
2022/01/03 18:03:08;;;;;;;13.82;2.30;;;;;;;-142.75;100.00;76940.38;5047981;28;20482;-69
2022/01/03 18:05:34;;;;;;;12.95;2.67;;;;;;;-142.75;100.00;76940.38;5049780;28;20017;-69
2022/01/03 18:08:00;;;;;;;12.50;2.70;;;;;;;-142.75;100.00;76932.50;5049643;28;20028;-69
2022/01/03 18:10:25;;;;;;;10.70;2.10;;;;;;;-142.75;100.00;76940.38;5048862;28;20038;-69
2022/01/03 18:12:58;;;;;;;14.73;2.63;;;;;;;-142.75;100.00;76940.38;5049730;28;20032;-69
2022/01/03 18:15:23;;;;;;;15.65;2.63;;;;;;;-142.75;100.00;76934.47;5049602;28;20025;-69
2022/01/03 18:17:49;;;;;;;14.15;2.80;;;;;;;-142.75;100.00;76940.38;5049802;28;20028;-69
2022/01/03 18:20:15;;;;;;;13.50;2.55;;;;;;;-142.75;100.00;76922.66;5048923;28;20037;-69
2022/01/03 18:22:41;;;;;;;14.27;2.60;;;;;;;-142.75;100.00;76910.84;5048775;28;20364;-69
2022/01/03 18:25:07;;;;;;;11.63;2.72;;;;;;;-142.75;100.00;76916.75;5054185;28;20036;-69
2022/01/03 18:27:33;;;;;;;;;;;;;;;-142.75;100.00;76916.75;5068677;28;20059;-69
2022/01/03 18:29:59;;;;;;;11.85;2.05;;;;;;;-142.75;100.00;76912.81;5068054;28;20334;-69
2022/01/03 18:32:26;;;;;;;11.82;2.20;;;;;;;-142.75;100.00;76918.72;5068320;28;20074;-69
2022/01/03 18:34:51;;;;;;;12.70;3.17;;;;;;;-142.75;100.00;76926.59;5068794;28;20025;-69
2022/01/03 18:37:17;;;;;;;13.55;2.50;;;;;;;-142.75;100.00;76926.59;5067682;28;20421;-69
2022/01/03 18:39:42;;;;;;;11.23;2.80;;;;;;;-142.75;100.00;76928.56;5067560;28;20027;-69
2022/01/03 18:42:09;;;;;;;12.37;2.63;;;;;;;-142.75;100.00;76912.81;5068501;28;20282;-67
2022/01/03 18:44:34;;;;;;;9.55;2.22;;;;;;;-142.75;100.00;76916.75;5067112;28;20286;-68
2022/01/03 18:47:00;;;;;;;12.55;2.45;;;;;;;-142.75;100.00;76908.88;5053515;28;20093;-67
2022/01/03 18:49:25;;;;;;;15.63;2.50;;;;;;;-142.75;100.00;76904.94;5058346;28;20067;-67
2022/01/03 18:51:50;;;;;;;13.17;2.53;;;;;;;-142.75;100.00;76904.94;5047727;28;20492;-67
2022/01/03 18:54:16;;;;;;;13.80;2.70;;;;;;;-142.75;100.00;76901.00;5047657;28;20286;-67
2022/01/03 18:56:43;;;;;;;11.13;2.30;;;;;;;-142.75;100.00;76899.03;5047472;28;20310;-68
2022/01/03 18:59:09;;;;;;;16.77;3.10;;;;;;;-142.75;100.00;76889.19;5046330;28;20021;-68
2022/01/03 19:01:34;;;;;;;9.90;2.28;;;;;;;-142.75;100.00;76885.25;5057278;28;20708;-68
2022/01/03 19:03:59;;;;;;;24.80;2.97;;;;;;;-142.75;100.00;76887.22;5067419;28;20051;-68
2022/01/03 19:06:25;;;;;;;11.70;2.33;;;;;;;-142.75;100.00;76883.28;5046179;28;20032;-68
2022/01/03 19:08:50;;;;;;;13.85;2.72;;;;;;;-142.75;100.00;76881.31;5047508;28;20066;-68
2022/01/03 19:11:16;;;;;;;12.52;2.65;;;;;;;-142.75;100.00;76889.19;5051080;28;20514;-68
2022/01/03 19:13:41;;;;;;;14.35;2.55;;;;;;;-142.75;100.00;76899.03;5048964;28;20032;-68
2022/01/03 19:16:06;;;;;;;12.65;2.50;;;;;;;-142.75;100.00;76897.06;5047442;28;20036;-68
2022/01/03 19:18:32;;;;;;;24.52;3.60;;;;;;;-142.75;100.00;76895.09;5047034;28;20082;-68
2022/01/03 19:20:57;;;;;;;7.60;2.65;;;;;;;-142.75;100.00;76901.00;5046954;28;20025;-67
2022/01/03 19:23:22;;;;;;;12.85;2.45;;;;;;;-142.75;100.00;76897.06;5047093;28;20067;-68
2022/01/03 19:25:48;;;;;;;11.83;2.47;;;;;;;-142.75;100.00;76897.06;5054676;28;20025;-68
2022/01/03 19:28:13;;;;;;;14.48;3.33;;;;;;;-142.75;100.00;76889.19;5067159;28;20274;-68
2022/01/03 19:30:39;;;;;;;17.58;3.40;;;;;;;-142.75;100.00;76881.31;5066354;28;20445;-67
2022/01/03 19:38:24;;;;;;;12.45;2.75;;;;;;;-142.75;100.00;76863.59;5068193;28;20725;-68
2022/01/03 19:40:50;;;;;;;14.45;2.90;;;;;;;-142.75;100.00;76855.72;5070204;28;20055;-67
2022/01/03 19:43:16;;;;;;;;;;;;;;;-142.75;100.00;76863.59;5069044;28;20017;-67
2022/01/03 19:45:42;;;;;;;17.25;3.53;;;;;;;-142.75;100.00;76851.78;5050895;28;19917;-68
2022/01/03 19:48:11;;;;;;;13.50;2.47;;;;;;;-142.75;100.00;76855.72;5050305;28;20057;-68
2022/01/03 19:50:37;;;;;;;11.88;2.92;;;;;;;-142.75;100.00;76849.81;5067069;28;20033;-67
2022/01/03 19:53:03;;;;;;;10.77;2.80;;;;;;;-142.75;100.00;76853.75;5070341;28;20025;-68
2022/01/03 19:55:28;;;;;;;14.63;3.30;;;;;;;-142.75;100.00;76851.78;5050735;28;20056;-67
2022/01/03 19:57:53;;;;;;;15.25;3.00;;;;;;;-142.75;100.00;76849.81;5049497;28;20032;-68
2022/01/03 20:00:19;;;;;;;17.48;3.10;;;;;;;-142.75;100.00;76845.88;5050374;28;20025;-68
2022/01/03 20:02:44;;;;;;;16.02;3.25;;;;;;;-142.75;100.00;76853.75;5066436;28;20030;-67
2022/01/03 20:05:11;;;;;;;15.18;2.92;;;;;;;-142.75;100.00;76851.78;5070435;28;20094;-68
2022/01/03 20:07:37;;;;;;;13.18;3.00;;;;;;;-142.75;100.00;76849.81;5069013;28;20027;-67
2022/01/03 20:10:05;;;;;;;19.13;3.00;;;;;;;-142.75;100.00;76851.78;5069529;28;20016;-70
2022/01/03 20:12:31;;;;;;;9.18;2.30;;;;;;;-142.75;100.00;76845.88;5069005;28;20388;-70
2022/01/03 20:15:03;;;;;;;11.18;3.22;;;;;;;-142.75;100.00;76843.91;5059099;28;20026;-69
2022/01/03 20:17:28;;;;;;;11.85;3.28;;;;;;;-142.75;100.00;76847.84;5070936;28;20067;-70
2022/01/03 20:19:53;;;;;;;13.18;3.58;;;;;;;-142.75;100.00;76845.88;5070451;28;20447;-70
2022/01/03 20:22:19;;;;;;;17.67;3.60;;;;;;;-142.75;100.00;76834.06;5063209;28;20013;-68
2022/01/03 20:24:46;;;;;;;11.93;3.92;;;;;;;-142.75;100.00;76832.09;5070139;28;21335;-67
2022/01/03 20:27:11;;;;;;;13.98;4.20;;;;;;;-142.75;100.00;76838.00;5064319;28;20127;-68
2022/01/03 20:29:37;;;;;;;15.13;3.55;;;;;;;-142.75;100.00;76843.91;5070275;28;20108;-67
2022/01/03 20:32:10;;;;;;;16.38;3.67;;;;;;;-142.75;100.00;76845.88;5069741;28;20048;-67
2022/01/03 20:34:37;;;;;;;21.58;3.80;;;;;;;-142.75;100.00;76845.88;5070274;28;20695;-68
2022/01/03 20:37:02;;;;;;;8.75;3.40;;;;;;;-142.75;100.00;76830.13;5070778;28;20062;-69
2022/01/03 20:39:27;;;;;;;16.92;4.22;;;;;;;-142.75;100.00;76826.19;5070060;28;20048;-67
2022/01/03 20:41:54;;;;;;;18.30;4.55;;;;;;;-142.75;100.00;76834.06;5069841;28;20016;-67
2022/01/03 20:44:19;;;;;;;;;;;;;;;-142.75;100.00;76832.09;5071138;28;20059;-66
2022/01/03 20:46:44;;;;;;;17.75;4.10;;;;;;;-142.75;100.00;76830.13;5070043;28;19948;-67
2022/01/03 20:49:10;;;;;;;14.05;4.05;;;;;;;-142.75;100.00;76818.31;5070270;28;20025;-67
2022/01/03 20:51:35;;;;;;;16.67;4.03;;;;;;;-142.75;100.00;76818.31;5069856;28;20099;-66
2022/01/03 20:54:00;;;;;;;14.45;4.40;;;;;;;-142.75;100.00;76812.41;5059102;28;20080;-66
2022/01/03 20:56:26;;;;;;;18.00;3.67;;;;;;;-142.75;100.00;76806.50;5053590;28;20020;-67
2022/01/03 20:58:51;;;;;;;19.45;4.68;;;;;;;-142.75;100.00;76808.50;5059218;28;20021;-67
2022/01/03 21:01:16;;;;;;;16.52;4.53;;;;;;;-142.75;100.00;76806.50;5049284;28;20020;-67
2022/01/03 21:03:41;;;;;;;9.27;3.47;;;;;;;-142.75;100.00;76812.41;5050637;28;20033;-67
2022/01/03 21:06:07;;;;;;;15.13;3.72;;;;;;;-142.75;100.00;76802.56;5050409;28;20097;-66
2022/01/03 21:08:33;;;;;;;16.40;4.80;;;;;;;-142.75;100.00;76806.50;5055287;28;20103;-67
2022/01/03 21:10:58;;;;;;;14.43;4.05;;;;;;;-142.75;100.00;76788.81;5065792;28;20021;-67
2022/01/03 21:13:24;;;;;;;16.10;4.45;;;;;;;-142.75;100.00;76796.69;5050255;28;20513;-67
2022/01/03 21:15:49;;;;;;;15.50;5.15;;;;;;;-142.75;100.00;76792.75;5050514;28;20029;-67
2022/01/03 21:18:15;;;;;;;16.70;4.85;;;;;;;-142.75;100.00;76786.84;5050145;28;20028;-67
2022/01/03 21:20:40;;;;;;;14.40;4.82;;;;;;;-142.75;100.00;76792.75;5049290;28;20036;-67
2022/01/03 21:23:06;;;;;;;11.50;4.30;;;;;;;-142.75;100.00;76798.66;5050161;28;20029;-67
2022/01/03 21:25:31;;;;;;;16.27;4.80;;;;;;;-142.75;100.00;76804.53;5049940;28;20029;-68
2022/01/03 21:27:57;;;;;;;15.57;4.95;;;;;;;-142.75;100.00;76802.56;5049901;28;20033;-68
2022/01/03 21:30:22;;;;;;;19.55;5.70;;;;;;;-142.75;100.00;76798.66;5049239;28;20044;-68
2022/01/03 21:32:52;;;;;;;17.33;5.35;;;;;;;-142.75;100.00;76794.69;5050325;28;20017;-67
2022/01/03 21:35:21;;;;;;;15.45;5.75;;;;;;;-142.75;100.00;76790.78;5062508;28;20053;-67
2022/01/03 21:37:46;;;;;;;14.38;5.22;;;;;;;-142.75;100.00;76790.78;5050702;28;20021;-67
2022/01/03 21:40:12;;;;;;;11.38;5.40;;;;;;;-142.75;100.00;76782.91;5067675;28;20153;-67
2022/01/03 21:42:37;;;;;;;21.90;5.60;;;;;;;-142.75;100.00;76765.19;5069504;28;20017;-69
2022/01/03 21:45:03;;;;;;;19.40;5.75;;;;;;;-142.75;100.00;76775.03;5069827;28;20370;-68
2022/01/03 21:47:29;;;;;;;;;;;;;;;-142.75;100.00;76782.91;5069652;28;20115;-67
2022/01/03 21:49:54;;;;;;;14.38;5.35;;;;;;;-142.75;100.00;76771.09;5068308;28;20003;-69
2022/01/03 21:52:19;;;;;;;16.92;5.15;;;;;;;-142.75;100.00;76773.06;5069006;28;20409;-68
2022/01/03 21:54:44;;;;;;;19.40;5.38;;;;;;;-142.75;100.00;76777.00;5068961;28;20037;-68
2022/01/03 21:57:10;;;;;;;17.50;6.10;;;;;;;-142.75;100.00;76771.09;5068863;28;20085;-68
2022/01/03 21:59:35;;;;;;;15.75;5.20;;;;;;;-142.75;100.00;76765.19;5067110;28;20024;-68
2022/01/03 22:02:01;;;;;;;15.20;5.80;;;;;;;-142.75;100.00;76771.09;5067355;28;20047;-68
2022/01/03 22:04:26;;;;;;;16.20;5.60;;;;;;;-142.75;100.00;76763.22;5067549;28;20389;-68
2022/01/03 22:06:51;;;;;;;16.67;5.43;;;;;;;-142.75;100.00;76755.34;5068816;28;20028;-68
2022/01/03 22:09:19;;;;;;;14.20;5.85;;;;;;;-142.75;100.00;76753.38;5067528;28;20032;-68
2022/01/03 22:11:46;;;;;;;16.13;5.38;;;;;;;-142.75;100.00;76751.41;5067992;28;20032;-67
2022/01/03 22:14:11;;;;;;;15.80;5.93;;;;;;;-142.75;100.00;76757.31;5068585;28;20123;-69
2022/01/03 22:16:37;;;;;;;18.20;5.47;;;;;;;-142.75;100.00;76749.44;5066961;28;20189;-68
2022/01/03 22:19:03;;;;;;;17.27;5.63;;;;;;;-142.75;100.00;76757.31;5040684;22;20041;-66
2022/01/03 22:21:28;;;;;;;13.55;5.47;;;;;;;-142.75;100.00;76743.53;5007844;28;20095;-67
2022/01/03 22:23:53;;;;;;;19.08;5.10;;;;;;;-142.75;100.00;76739.59;5010622;28;20033;-67
2022/01/03 22:26:20;;;;;;;14.55;5.38;;;;;;;-142.75;100.00;76735.66;5009072;28;20028;-66
2022/01/03 22:28:45;;;;;;;15.68;5.75;;;;;;;-142.75;100.00;76723.84;5010177;28;20033;-67
2022/01/03 22:31:10;;;;;;;13.57;5.40;;;;;;;-142.75;100.00;76729.75;5007787;28;20048;-66
2022/01/03 22:33:36;;;;;;;18.23;6.47;;;;;;;-142.75;100.00;76708.09;5028309;28;20087;-67
2022/01/03 22:36:01;;;;;;;18.17;5.93;;;;;;;-142.75;100.00;76708.09;5029305;28;20113;-66
2022/01/03 22:38:27;;;;;;;15.95;5.90;;;;;;;-142.75;100.00;76715.97;5026443;28;20118;-67
2022/01/03 22:40:52;;;;;;;19.30;6.03;;;;;;;-142.75;100.00;76714.00;5007348;28;20068;-65
2022/01/03 22:43:17;;;;;;;15.93;6.25;;;;;;;-142.75;100.00;76712.03;5009224;28;20283;-67
2022/01/03 22:45:43;;;;;;;19.77;6.65;;;;;;;-142.75;100.00;76712.03;5009682;28;20029;-66
2022/01/03 22:48:09;;;;;;;;;;;;;;;-142.75;100.00;76704.16;5009879;28;20399;-66
2022/01/03 22:50:34;;;;;;;19.02;5.80;;;;;;;-142.75;100.00;76704.16;5008706;28;20004;-66
2022/01/03 22:52:59;;;;;;;14.82;7.03;;;;;;;-142.75;100.00;76700.22;5009506;28;20400;-66
2022/01/03 22:55:25;;;;;;;20.20;6.78;;;;;;;-142.75;100.00;76704.16;5008129;28;20037;-65
2022/01/03 22:57:50;;;;;;;26.17;7.22;;;;;;;-142.75;100.00;76696.28;5007236;28;20026;-66
2022/01/03 23:00:18;;;;;;;21.73;6.35;;;;;;;-142.75;100.00;76704.16;5008522;28;20076;-66
2022/01/03 23:02:44;;;;;;;16.67;6.20;;;;;;;-142.75;100.00;76698.25;5007935;28;20024;-66
2022/01/03 23:05:10;;;;;;;16.67;6.22;;;;;;;-142.75;100.00;76706.13;5009709;28;20380;-66
2022/01/03 23:07:36;;;;;;;16.55;6.13;;;;;;;-142.75;100.00;76702.19;5007918;28;20022;-64
2022/01/03 23:10:10;;;;;;;;;;;;;;;-142.75;100.00;76700.22;5009047;28;20369;-65
2022/01/03 23:12:38;;;;;;;20.85;6.45;;;;;;;-142.75;100.00;76696.28;5009220;28;19980;-65
2022/01/03 23:15:05;;;;;;;24.27;6.97;;;;;;;-142.75;100.00;76708.09;5012851;28;20032;-65
2022/01/03 23:17:30;;;;;;;19.40;7.45;;;;;;;-142.75;100.00;76712.03;5012938;28;20026;-66
2022/01/03 23:19:55;;;;;;;19.70;7.22;;;;;;;-142.75;100.00;76704.16;5012587;28;20033;-65
2022/01/03 23:22:21;;;;;;;26.67;7.50;;;;;;;-142.75;100.00;76698.25;5011672;28;20026;-64
2022/01/03 23:24:46;;;;;;;17.17;7.53;;;;;;;-142.75;100.00;76692.34;5013454;28;20030;-66
2022/01/03 23:27:11;;;;;;;13.23;6.32;;;;;;;-142.75;100.00;76696.28;5012958;28;20052;-66
2022/01/03 23:29:40;;;;;;;15.30;7.00;;;;;;;-142.75;100.00;76690.38;5012588;28;20535;-65
2022/01/03 23:32:06;;;;;;;18.90;7.70;;;;;;;-142.75;100.00;76686.44;5012867;28;20022;-67
2022/01/03 23:34:31;;;;;;;16.92;7.68;;;;;;;-142.75;100.00;76684.47;5013018;28;20036;-66
2022/01/03 23:36:57;;;;;;;27.08;7.97;;;;;;;-142.75;100.00;76690.38;5012930;28;20100;-65
2022/01/03 23:39:22;;;;;;;18.38;6.97;;;;;;;-142.75;100.00;76702.19;5011985;28;20079;-65
2022/01/03 23:41:48;;;;;;;19.10;7.57;;;;;;;-142.75;100.00;76706.13;5011714;28;20026;-66
2022/01/03 23:44:13;;;;;;;22.30;7.63;;;;;;;-142.75;100.00;76704.16;5010797;28;20396;-66
2022/01/03 23:46:39;;;;;;;17.85;7.18;;;;;;;-142.75;100.00;76704.16;5012116;28;20036;-66
2022/01/03 23:49:04;;;;;;;15.73;7.75;;;;;;;-142.75;100.00;76698.25;5012097;28;20022;-66
2022/01/03 23:51:30;;;;;;;20.23;7.50;;;;;;;-142.75;100.00;76698.25;5011017;28;20476;-66
2022/01/03 23:53:56;;;;;;;15.38;7.22;;;;;;;-142.75;100.00;76690.38;5012105;28;20030;-66
2022/01/03 23:56:22;;;;;;;14.82;7.63;;;;;;;-142.75;100.00;76688.41;5011779;28;20057;-64
2022/01/03 23:58:47;;;;;;;17.02;7.28;;;;;;;-142.75;100.00;76688.41;5010448;28;20022;-66
